createdAt,value
2017-10-19T00:01:58.116Z,19.03
2017-10-19T00:04:25.587Z,18.90
2017-10-19T00:06:53.843Z,18.17
2017-10-19T00:09:21.311Z,18.73
2017-10-19T00:11:49.539Z,19.97
2017-10-19T00:14:17.010Z,19.40
2017-10-19T00:16:44.495Z,18.53
2017-10-19T00:19:11.972Z,21.07
2017-10-19T00:21:40.204Z,20.30
2017-10-19T00:24:07.680Z,21.03
2017-10-19T00:26:35.135Z,20.13
2017-10-19T00:29:02.595Z,19.93
2017-10-19T00:31:30.083Z,20.93
2017-10-19T00:33:57.552Z,19.20
2017-10-19T00:36:25.010Z,19.27
2017-10-19T00:38:52.491Z,20.57
2017-10-19T00:41:19.967Z,20.07
2017-10-19T00:43:48.207Z,20.17
2017-10-19T00:46:15.679Z,19.60
2017-10-19T00:48:43.150Z,19.70
2017-10-19T00:51:10.627Z,20.27
2017-10-19T00:53:38.856Z,20.40
2017-10-19T00:56:06.322Z,19.30
2017-10-19T00:58:33.794Z,20.50
2017-10-19T01:01:02.024Z,20.40
2017-10-19T01:03:29.496Z,19.77
2017-10-19T01:05:56.954Z,20.37
2017-10-19T01:08:24.435Z,19.10
2017-10-19T01:10:52.684Z,20.00
2017-10-19T01:13:20.143Z,19.57
2017-10-19T01:15:47.604Z,20.57
2017-10-19T01:18:15.083Z,20.30
2017-10-19T01:20:43.321Z,20.47
2017-10-19T01:23:10.795Z,21.80
2017-10-19T01:25:38.259Z,21.90
2017-10-19T01:28:05.747Z,22.20
2017-10-19T01:30:33.982Z,21.17
2017-10-19T01:33:01.443Z,22.17
2017-10-19T01:35:28.923Z,22.87
2017-10-19T01:37:56.386Z,22.73
2017-10-19T01:40:23.867Z,22.20
2017-10-19T01:42:51.327Z,22.73
2017-10-19T01:45:18.816Z,21.50
2017-10-19T01:47:46.275Z,20.73
2017-10-19T01:50:13.751Z,20.77
2017-10-19T01:52:41.227Z,21.37
2017-10-19T01:55:08.692Z,22.23
2017-10-19T01:57:36.937Z,23.77
2017-10-19T02:00:04.422Z,23.87
2017-10-19T02:02:32.734Z,23.50
2017-10-19T02:05:00.291Z,22.67
2017-10-19T02:07:27.766Z,21.10
2017-10-19T02:09:55.238Z,20.73
2017-10-19T02:12:22.714Z,21.70
2017-10-19T02:14:50.183Z,23.07
2017-10-19T02:17:18.431Z,22.70
2017-10-19T02:19:45.890Z,22.13
2017-10-19T02:22:13.371Z,20.80
2017-10-19T02:24:41.595Z,22.70
2017-10-19T02:27:09.061Z,22.30
2017-10-19T02:29:36.544Z,20.97
2017-10-19T02:32:04.012Z,21.30
2017-10-19T02:34:31.463Z,20.80
2017-10-19T02:36:59.711Z,22.00
2017-10-19T02:39:27.187Z,21.87
2017-10-19T02:41:54.674Z,20.63
2017-10-19T02:44:22.139Z,20.20
2017-10-19T02:46:49.597Z,19.40
2017-10-19T02:49:17.087Z,19.20
2017-10-19T02:51:44.543Z,20.13
2017-10-19T02:54:12.003Z,20.13
2017-10-19T02:56:39.484Z,20.33
2017-10-19T02:59:06.942Z,20.10
2017-10-19T03:01:34.437Z,21.37
2017-10-19T03:04:02.655Z,23.33
2017-10-19T03:06:30.111Z,23.83
2017-10-19T03:08:57.590Z,21.03
2017-10-19T03:11:25.824Z,23.93
2017-10-19T03:13:53.307Z,25.37
2017-10-19T03:16:20.764Z,23.07
2017-10-19T03:18:48.220Z,22.93
2017-10-19T03:21:15.695Z,22.43
2017-10-19T03:23:43.940Z,22.03
2017-10-19T03:26:11.420Z,22.07
2017-10-19T03:28:38.882Z,22.47
2017-10-19T03:31:07.116Z,19.87
2017-10-19T03:33:34.590Z,21.77
2017-10-19T03:36:02.064Z,20.27
2017-10-19T03:38:29.539Z,20.90
2017-10-19T03:40:57.779Z,20.93
2017-10-19T03:43:25.243Z,22.00
2017-10-19T03:45:52.727Z,23.60
2017-10-19T03:48:20.962Z,23.43
2017-10-19T03:50:48.415Z,22.67
2017-10-19T03:53:15.894Z,24.40
2017-10-19T03:55:43.347Z,23.63
2017-10-19T03:58:10.830Z,22.60
2017-10-19T04:00:39.048Z,21.20
2017-10-19T04:03:06.521Z,21.30
2017-10-19T04:05:33.986Z,21.47
2017-10-19T04:08:01.468Z,22.27
2017-10-19T04:10:29.704Z,21.93
2017-10-19T04:12:57.183Z,21.83
2017-10-19T04:15:24.646Z,22.93
2017-10-19T04:17:52.875Z,23.03
2017-10-19T04:20:20.360Z,27.10
2017-10-19T04:22:48.599Z,25.70
2017-10-19T04:25:16.083Z,25.63
2017-10-19T04:27:43.555Z,26.00
2017-10-19T04:30:11.038Z,24.93
2017-10-19T04:32:39.277Z,23.27
2017-10-19T04:35:07.519Z,23.13
2017-10-19T04:37:35.001Z,23.90
2017-10-19T04:40:02.463Z,26.23
2017-10-19T04:42:30.704Z,24.53
2017-10-19T04:44:58.178Z,25.40
2017-10-19T04:47:25.671Z,24.17
2017-10-19T04:49:53.903Z,23.73
2017-10-19T04:52:21.386Z,25.00
2017-10-19T04:54:48.847Z,24.37
2017-10-19T04:57:16.331Z,23.50
2017-10-19T04:59:44.563Z,24.47
2017-10-19T05:02:12.042Z,24.27
2017-10-19T05:04:39.503Z,26.40
2017-10-19T05:07:07.747Z,24.57
2017-10-19T05:09:35.231Z,24.20
2017-10-19T05:12:02.699Z,23.80
2017-10-19T05:14:30.930Z,23.20
2017-10-19T05:16:58.411Z,24.50
2017-10-19T05:19:25.892Z,26.37
2017-10-19T05:21:54.127Z,25.70
2017-10-19T05:24:21.616Z,25.80
2017-10-19T05:26:49.095Z,25.47
2017-10-19T05:29:16.570Z,26.50
2017-10-19T05:31:44.125Z,26.07
2017-10-19T05:34:11.591Z,27.43
2017-10-19T05:36:39.080Z,25.87
2017-10-19T05:39:06.553Z,27.50
2017-10-19T05:41:34.779Z,27.33
2017-10-19T05:44:02.265Z,27.00
2017-10-19T05:46:29.740Z,25.20
2017-10-19T05:48:57.987Z,27.27
2017-10-19T05:51:25.471Z,27.20
2017-10-19T05:53:53.712Z,27.20
2017-10-19T05:56:22.832Z,26.77
2017-10-19T05:58:51.055Z,26.93
2017-10-19T06:01:18.530Z,25.03
2017-10-19T06:03:46.015Z,25.00
2017-10-19T06:06:13.487Z,25.67
2017-10-19T06:08:41.730Z,26.17
2017-10-19T06:11:09.192Z,26.00
2017-10-19T06:13:36.674Z,26.47
2017-10-19T06:16:04.926Z,25.20
2017-10-19T06:18:32.400Z,25.80
2017-10-19T06:20:59.882Z,25.03
2017-10-19T06:23:27.351Z,25.90
2017-10-19T06:25:54.828Z,25.73
2017-10-19T06:28:22.299Z,26.33
2017-10-19T06:30:49.767Z,26.53
2017-10-19T06:33:17.235Z,26.53
2017-10-19T06:35:44.707Z,26.30
2017-10-19T06:38:12.965Z,25.83
2017-10-19T06:40:40.460Z,25.57
2017-10-19T06:43:07.910Z,25.63
2017-10-19T06:45:35.387Z,25.80
2017-10-19T06:48:02.946Z,26.10
2017-10-19T06:50:30.427Z,26.00
2017-10-19T06:52:57.892Z,23.87
2017-10-19T06:55:25.355Z,25.20
2017-10-19T06:57:54.344Z,24.80
2017-10-19T07:00:21.806Z,24.23
2017-10-19T07:02:49.288Z,22.90
2017-10-19T07:05:17.526Z,25.13
2017-10-19T07:07:44.987Z,22.73
2017-10-19T07:10:12.463Z,24.37
2017-10-19T07:12:39.933Z,24.63
2017-10-19T07:15:08.175Z,24.00
2017-10-19T07:17:35.644Z,24.17
2017-10-19T07:20:03.103Z,26.23
2017-10-19T07:22:30.587Z,23.17
2017-10-19T07:24:58.830Z,24.80
2017-10-19T07:27:26.319Z,24.67
2017-10-19T07:29:53.783Z,24.43
2017-10-19T07:32:21.268Z,23.40
2017-10-19T07:34:48.746Z,23.97
2017-10-19T07:37:16.204Z,23.80
2017-10-19T07:39:43.688Z,24.30
2017-10-19T07:42:11.916Z,24.80
2017-10-19T07:44:39.396Z,24.77
2017-10-19T07:47:08.371Z,24.23
2017-10-19T07:49:35.828Z,23.27
2017-10-19T07:52:03.299Z,25.63
2017-10-19T07:54:30.779Z,25.67
2017-10-19T07:56:59.024Z,24.20
2017-10-19T07:59:26.483Z,23.73
2017-10-19T08:01:54.744Z,26.00
2017-10-19T08:04:22.203Z,24.63
2017-10-19T08:06:49.663Z,24.93
2017-10-19T08:09:17.143Z,25.23
2017-10-19T08:11:44.608Z,26.80
2017-10-19T08:14:12.831Z,25.90
2017-10-19T08:16:40.308Z,26.27
2017-10-19T08:19:07.788Z,26.10
2017-10-19T08:21:35.251Z,25.13
2017-10-19T08:24:03.484Z,25.70
2017-10-19T08:26:30.958Z,24.97
2017-10-19T08:28:58.427Z,25.33
2017-10-19T08:31:25.918Z,25.53
2017-10-19T08:33:54.139Z,23.90
2017-10-19T08:36:21.620Z,26.23
2017-10-19T08:38:49.103Z,24.97
2017-10-19T08:41:16.572Z,24.87
2017-10-19T08:43:44.038Z,24.77
2017-10-19T08:46:11.509Z,25.57
2017-10-19T08:48:38.980Z,23.83
2017-10-19T08:51:06.454Z,26.13
2017-10-19T08:53:33.922Z,23.97
2017-10-19T08:56:01.376Z,25.60
2017-10-19T08:58:28.852Z,23.20
2017-10-19T09:00:57.082Z,23.90
2017-10-19T09:03:24.560Z,24.93
2017-10-19T09:05:52.032Z,24.70
2017-10-19T09:08:20.279Z,23.90
2017-10-19T09:10:47.746Z,24.77
2017-10-19T09:13:15.210Z,24.13
2017-10-19T09:15:43.454Z,24.80
2017-10-19T09:18:10.919Z,23.67
2017-10-19T09:20:39.915Z,25.20
2017-10-19T09:23:07.381Z,23.70
2017-10-19T09:25:34.845Z,24.10
2017-10-19T09:28:02.319Z,23.50
2017-10-19T09:30:29.782Z,25.20
2017-10-19T09:32:57.268Z,24.40
2017-10-19T09:35:24.738Z,23.67
2017-10-19T09:37:52.224Z,22.90
2017-10-19T09:40:19.698Z,22.03
2017-10-19T09:42:47.932Z,22.60
2017-10-19T09:45:15.420Z,23.20
2017-10-19T09:47:43.643Z,20.97
2017-10-19T09:50:11.123Z,21.67
2017-10-19T09:52:38.584Z,21.60
2017-10-19T09:55:06.056Z,20.40
2017-10-19T09:57:33.533Z,20.37
2017-10-19T10:00:01.767Z,20.27
2017-10-19T10:02:29.251Z,18.57
2017-10-19T10:04:57.487Z,20.23
2017-10-19T10:07:24.959Z,19.87
2017-10-19T10:09:52.439Z,19.80
2017-10-19T10:12:20.668Z,20.53
2017-10-19T10:14:48.155Z,18.57
2017-10-19T10:17:15.620Z,18.70
2017-10-19T10:19:43.103Z,18.13
2017-10-19T10:22:10.564Z,19.00
2017-10-19T10:24:38.039Z,18.27
2017-10-19T10:27:05.507Z,19.33
2017-10-19T10:29:33.003Z,19.20
2017-10-19T10:32:00.458Z,18.90
2017-10-19T10:34:27.920Z,18.90
2017-10-19T10:36:56.160Z,19.47
2017-10-19T10:39:23.624Z,17.63
2017-10-19T10:41:51.103Z,18.77
2017-10-19T10:44:18.571Z,16.50
2017-10-19T10:46:46.805Z,17.03
2017-10-19T10:49:14.282Z,17.07
2017-10-19T10:51:41.743Z,17.77
2017-10-19T10:54:09.224Z,16.20
2017-10-19T10:56:37.470Z,17.40
2017-10-19T10:59:06.450Z,16.60
2017-10-19T11:01:33.920Z,17.33
2017-10-19T11:04:01.380Z,17.57
2017-10-19T11:06:28.868Z,17.13
2017-10-19T11:08:56.386Z,17.07
2017-10-19T11:11:23.859Z,15.83
2017-10-19T11:13:52.107Z,17.37
2017-10-19T11:16:19.595Z,18.33
2017-10-19T11:18:47.822Z,19.20
2017-10-19T11:21:15.303Z,16.47
2017-10-19T11:23:42.796Z,16.77
2017-10-19T11:26:11.031Z,17.13
2017-10-19T11:28:38.486Z,16.40
2017-10-19T11:31:05.968Z,14.83
2017-10-19T11:33:34.199Z,15.40
2017-10-19T11:36:01.692Z,16.03
2017-10-19T11:38:29.169Z,15.90
2017-10-19T11:40:57.402Z,14.93
2017-10-19T11:43:24.884Z,16.10
2017-10-19T11:45:53.136Z,17.00
2017-10-19T11:48:20.619Z,17.00
2017-10-19T11:50:48.864Z,14.73
2017-10-19T11:53:16.351Z,16.20
2017-10-19T11:55:44.590Z,16.03
2017-10-19T11:58:12.069Z,17.47
2017-10-19T12:00:39.546Z,18.03
2017-10-19T12:03:07.775Z,14.77
2017-10-19T12:05:35.244Z,16.30
2017-10-19T12:08:02.716Z,15.77
2017-10-19T12:10:30.180Z,17.57
2017-10-19T12:12:58.432Z,18.07
2017-10-19T12:15:25.911Z,17.27
2017-10-19T12:17:54.148Z,17.50
2017-10-19T12:20:21.614Z,17.07
2017-10-19T12:22:49.091Z,17.30
2017-10-19T12:25:16.572Z,18.53
2017-10-19T12:27:44.807Z,18.80
2017-10-19T12:30:12.263Z,16.90
2017-10-19T12:32:39.756Z,17.80
2017-10-19T12:35:08.007Z,17.90
2017-10-19T12:37:35.476Z,18.03
2017-10-19T12:40:03.736Z,17.70
2017-10-19T12:42:31.209Z,17.40
2017-10-19T12:44:59.447Z,18.47
2017-10-19T12:47:26.942Z,20.13
2017-10-19T12:49:55.174Z,21.30
2017-10-19T12:52:22.682Z,20.33
2017-10-19T12:54:50.912Z,20.57
2017-10-19T12:57:18.381Z,19.60
2017-10-19T12:59:45.855Z,21.43
2017-10-19T13:02:14.095Z,20.53
2017-10-19T13:04:41.580Z,21.83
2017-10-19T13:07:09.051Z,21.60
2017-10-19T13:09:37.283Z,22.07
2017-10-19T13:12:04.769Z,21.03
2017-10-19T13:14:32.253Z,18.57
2017-10-19T13:17:00.476Z,20.10
2017-10-19T13:19:27.956Z,19.93
2017-10-19T13:21:55.419Z,19.07
2017-10-19T13:24:22.907Z,19.47
2017-10-19T13:26:50.379Z,18.47
2017-10-19T13:29:17.850Z,16.80
2017-10-19T13:31:45.335Z,16.70
2017-10-19T13:34:12.796Z,16.50
2017-10-19T13:36:40.271Z,15.73
2017-10-19T13:39:08.510Z,15.23
2017-10-19T13:41:35.995Z,16.90
2017-10-19T13:44:04.219Z,15.17
2017-10-19T13:46:31.711Z,14.07
2017-10-19T13:48:59.200Z,13.33
2017-10-19T13:51:26.677Z,12.70
2017-10-19T13:53:54.142Z,12.90
2017-10-19T13:56:21.625Z,12.00
2017-10-19T13:58:49.095Z,11.73
2017-10-19T14:01:16.577Z,12.40
2017-10-19T14:03:44.828Z,12.07
2017-10-19T14:06:12.312Z,11.80
2017-10-19T14:08:40.568Z,11.60
2017-10-19T14:11:08.033Z,12.03
2017-10-19T14:13:36.300Z,12.00
2017-10-19T14:16:03.776Z,11.73
2017-10-19T14:18:32.000Z,12.10
2017-10-19T14:20:59.490Z,11.90
2017-10-19T14:23:27.734Z,12.43
2017-10-19T14:25:55.220Z,11.27
2017-10-19T14:28:23.464Z,11.37
2017-10-19T14:30:50.940Z,11.00
2017-10-19T14:33:18.427Z,10.97
2017-10-19T14:35:46.650Z,10.40
2017-10-19T14:38:14.132Z,10.23
2017-10-19T14:40:41.595Z,9.63
2017-10-19T14:43:09.083Z,9.80
2017-10-19T14:45:36.554Z,10.53
2017-10-19T14:48:04.031Z,10.73
2017-10-19T14:50:31.503Z,10.23
2017-10-19T14:52:58.995Z,9.90
2017-10-19T14:55:27.214Z,9.23
2017-10-19T14:57:54.699Z,11.13
2017-10-19T15:00:22.174Z,10.17
2017-10-19T15:02:50.448Z,9.30
2017-10-19T15:05:18.673Z,8.80
2017-10-19T15:07:46.143Z,9.23
2017-10-19T15:10:13.637Z,9.67
2017-10-19T15:12:41.868Z,10.03
2017-10-19T15:15:09.339Z,10.20
2017-10-19T15:17:36.807Z,9.80
2017-10-19T15:20:04.291Z,10.73
2017-10-19T15:22:32.536Z,9.27
2017-10-19T15:24:59.995Z,8.73
2017-10-19T15:27:27.488Z,8.97
2017-10-19T15:29:55.720Z,10.67
2017-10-19T15:32:23.199Z,8.63
2017-10-19T15:34:51.420Z,9.50
2017-10-19T15:37:18.906Z,9.67
2017-10-19T15:39:46.375Z,11.03
2017-10-19T15:42:13.851Z,10.47
2017-10-19T15:44:42.100Z,9.27
2017-10-19T15:47:09.566Z,9.83
2017-10-19T15:49:37.828Z,11.07
2017-10-19T15:52:05.298Z,9.97
2017-10-19T15:54:32.759Z,9.83
2017-10-19T15:57:01.025Z,11.13
2017-10-19T15:59:29.254Z,10.23
2017-10-19T16:01:56.911Z,11.87
2017-10-19T16:04:24.370Z,10.80
2017-10-19T16:06:51.871Z,10.63
2017-10-19T16:09:19.327Z,10.53
2017-10-19T16:11:46.785Z,10.00
2017-10-19T16:14:14.263Z,9.70
2017-10-19T16:16:42.488Z,9.50
2017-10-19T16:19:09.949Z,9.23
2017-10-19T16:21:37.412Z,9.43
2017-10-19T16:24:04.907Z,10.50
2017-10-19T16:26:33.147Z,11.53
2017-10-19T16:29:00.618Z,11.23
2017-10-19T16:31:28.154Z,11.70
2017-10-19T16:33:55.640Z,11.13
2017-10-19T16:36:23.138Z,11.20
2017-10-19T16:38:50.617Z,12.20
2017-10-19T16:41:18.088Z,11.00
2017-10-19T16:43:45.587Z,12.20
2017-10-19T16:46:13.845Z,11.63
2017-10-19T16:48:41.316Z,12.50
2017-10-19T16:51:09.553Z,11.60
2017-10-19T16:53:37.039Z,11.23
2017-10-19T16:56:05.277Z,12.73
2017-10-19T16:58:32.776Z,11.87
2017-10-19T17:01:01.017Z,13.00
2017-10-19T17:03:28.516Z,11.67
2017-10-19T17:05:56.760Z,12.13
2017-10-19T17:08:24.223Z,11.80
2017-10-19T17:10:51.843Z,11.57
2017-10-19T17:13:19.316Z,11.80
2017-10-19T17:15:46.790Z,11.30
2017-10-19T17:18:14.254Z,12.10
2017-10-19T17:20:42.585Z,12.57
2017-10-19T17:23:10.070Z,12.30
2017-10-19T17:25:37.547Z,10.07
2017-10-19T17:28:05.803Z,11.93
2017-10-19T17:30:33.280Z,11.43
2017-10-19T17:33:00.752Z,11.97
2017-10-19T17:35:28.975Z,11.73
2017-10-19T17:37:56.461Z,11.13
2017-10-19T17:40:23.937Z,10.70
2017-10-19T17:42:52.195Z,10.70
2017-10-19T17:45:20.442Z,11.30
2017-10-19T17:47:47.923Z,10.47
2017-10-19T17:50:15.391Z,10.30
2017-10-19T17:52:43.615Z,11.43
2017-10-19T17:55:11.096Z,12.00
2017-10-19T17:57:38.587Z,12.53
2017-10-19T18:00:06.841Z,11.60
2017-10-19T18:02:34.300Z,12.53
2017-10-19T18:05:01.790Z,12.13
2017-10-19T18:07:29.276Z,12.23
2017-10-19T18:09:56.742Z,11.90
2017-10-19T18:12:24.232Z,11.40
2017-10-19T18:14:51.704Z,12.07
2017-10-19T18:17:19.931Z,12.50
2017-10-19T18:19:47.443Z,12.17
2017-10-19T18:22:15.671Z,11.20
2017-10-19T18:24:43.135Z,11.93
2017-10-19T18:27:10.619Z,11.60
2017-10-19T18:29:38.868Z,11.80
2017-10-19T18:32:06.347Z,10.27
2017-10-19T18:34:36.752Z,12.73
2017-10-19T18:37:04.215Z,10.80
2017-10-19T18:39:31.698Z,11.27
2017-10-19T18:41:59.939Z,11.23
2017-10-19T18:44:27.407Z,11.60
2017-10-19T18:46:55.660Z,11.93
2017-10-19T18:49:23.135Z,10.50
2017-10-19T18:51:50.610Z,10.60
2017-10-19T18:54:18.856Z,10.67
2017-10-19T18:56:47.866Z,11.30
2017-10-19T18:59:16.132Z,9.53
2017-10-19T19:01:43.595Z,10.83
2017-10-19T19:04:11.062Z,11.20
2017-10-19T19:06:39.310Z,10.43
2017-10-19T19:09:06.799Z,11.10
2017-10-19T19:11:35.049Z,10.23
2017-10-19T19:14:02.566Z,10.80
2017-10-19T19:16:30.040Z,12.17
2017-10-19T19:18:57.540Z,10.83
2017-10-19T19:21:25.778Z,10.33
2017-10-19T19:23:53.292Z,10.73
2017-10-19T19:26:20.776Z,11.03
2017-10-19T19:28:48.241Z,10.93
2017-10-19T19:31:15.732Z,10.60
2017-10-19T19:33:43.962Z,10.97
2017-10-19T19:36:11.439Z,11.10
2017-10-19T19:38:38.931Z,11.97
2017-10-19T19:41:07.184Z,11.90
2017-10-19T19:43:34.666Z,11.17
2017-10-19T19:46:02.900Z,11.57
2017-10-19T19:48:30.396Z,11.20
2017-10-19T19:50:58.623Z,10.77
2017-10-19T19:53:26.101Z,11.50
2017-10-19T19:55:53.577Z,11.70
2017-10-19T19:58:21.819Z,10.93
2017-10-19T20:00:49.300Z,11.90
2017-10-19T20:03:17.543Z,13.10
2017-10-19T20:05:45.012Z,12.90
2017-10-19T20:08:12.507Z,12.40
2017-10-19T20:10:40.756Z,12.73
2017-10-19T20:13:08.243Z,12.50
2017-10-19T20:15:35.716Z,12.53
2017-10-19T20:18:03.176Z,13.93
2017-10-19T20:20:30.663Z,13.53
2017-10-19T20:22:58.132Z,13.77
2017-10-19T20:25:25.611Z,13.87
2017-10-19T20:27:53.874Z,13.70
2017-10-19T20:30:21.367Z,14.27
2017-10-19T20:32:48.830Z,15.20
2017-10-19T20:35:16.295Z,14.17
2017-10-19T20:37:43.771Z,14.93
2017-10-19T20:40:11.256Z,14.73
2017-10-19T20:42:39.492Z,14.33
2017-10-19T20:45:06.974Z,16.03
2017-10-19T20:47:34.455Z,15.80
2017-10-19T20:50:01.932Z,15.00
2017-10-19T20:52:29.391Z,15.63
2017-10-19T20:54:56.867Z,14.63
2017-10-19T20:57:24.331Z,14.97
2017-10-19T20:59:51.819Z,15.67
2017-10-19T21:02:19.330Z,16.40
2017-10-19T21:04:46.791Z,15.27
2017-10-19T21:07:14.272Z,15.93
2017-10-19T21:09:41.748Z,16.00
2017-10-19T21:12:09.217Z,16.60
2017-10-19T21:14:36.712Z,15.53
2017-10-19T21:17:04.209Z,15.97
2017-10-19T21:19:31.687Z,15.60
2017-10-19T21:21:59.159Z,15.90
2017-10-19T21:24:27.387Z,17.20
2017-10-19T21:26:54.864Z,16.60
2017-10-19T21:29:22.332Z,16.07
2017-10-19T21:31:49.817Z,16.73
2017-10-19T21:34:17.285Z,17.83
2017-10-19T21:36:44.756Z,17.07
2017-10-19T21:39:12.235Z,17.17
2017-10-19T21:41:39.698Z,18.00
2017-10-19T21:44:07.203Z,17.50
2017-10-19T21:46:34.655Z,17.20
2017-10-19T21:49:02.137Z,17.30
2017-10-19T21:51:29.619Z,16.50
2017-10-19T21:53:57.096Z,16.07
2017-10-19T21:56:24.551Z,15.57
2017-10-19T21:58:52.026Z,16.33
2017-10-19T22:01:20.283Z,16.50
2017-10-19T22:03:49.282Z,14.80
2017-10-19T22:06:16.735Z,15.37
2017-10-19T22:08:44.236Z,13.93
2017-10-19T22:11:11.696Z,14.97
2017-10-19T22:13:39.174Z,14.87
2017-10-19T22:16:06.650Z,13.40
2017-10-19T22:18:34.142Z,13.10
2017-10-19T22:21:01.639Z,12.87
2017-10-19T22:23:29.121Z,12.00
2017-10-19T22:25:56.575Z,11.80
2017-10-19T22:28:24.055Z,12.33
2017-10-19T22:30:52.291Z,12.87
2017-10-19T22:33:19.751Z,12.57
2017-10-19T22:35:47.247Z,13.20
2017-10-19T22:38:15.487Z,12.40
2017-10-19T22:40:42.973Z,11.90
2017-10-19T22:43:11.215Z,11.03
2017-10-19T22:45:38.672Z,10.30
2017-10-19T22:48:06.165Z,10.67
2017-10-19T22:50:34.390Z,10.33
2017-10-19T22:53:01.875Z,10.53
2017-10-19T22:55:29.347Z,8.90
2017-10-19T22:57:57.583Z,8.57
2017-10-19T23:00:25.055Z,10.50
2017-10-19T23:02:52.551Z,8.43
2017-10-19T23:05:20.036Z,8.33
2017-10-19T23:07:47.532Z,7.73
2017-10-19T23:10:14.993Z,7.90
2017-10-19T23:12:42.479Z,8.03
2017-10-19T23:15:09.943Z,7.20
2017-10-19T23:17:37.408Z,8.37
2017-10-19T23:20:04.894Z,7.73
2017-10-19T23:22:32.356Z,8.60
2017-10-19T23:24:59.840Z,7.80
2017-10-19T23:27:28.079Z,7.90
2017-10-19T23:29:55.563Z,7.70
2017-10-19T23:32:23.033Z,8.70
2017-10-19T23:34:51.251Z,7.03
2017-10-19T23:37:18.731Z,7.87
2017-10-19T23:39:46.195Z,8.30
2017-10-19T23:42:13.655Z,8.23
2017-10-19T23:44:41.151Z,8.30
2017-10-19T23:47:08.612Z,8.50
2017-10-19T23:49:36.087Z,7.97
2017-10-19T23:52:03.543Z,8.70
2017-10-19T23:54:31.027Z,8.50
2017-10-19T23:56:58.502Z,9.10
2017-10-19T23:59:25.951Z,9.50
